sensor_id;sensor_type;location;lat;lon;timestamp;P1;durP1;ratioP1;P2;durP2;ratioP2
17173;SDS011;8702;48.130;-1.696;2022-09-09T00:01:00;13.67;;;3.73;;
17173;SDS011;8702;48.130;-1.696;2022-09-09T00:03:37;12.73;;;3.20;;
17173;SDS011;8702;48.130;-1.696;2022-09-09T00:06:14;16.07;;;3.97;;
17173;SDS011;8702;48.130;-1.696;2022-09-09T00:08:50;13.43;;;3.73;;
17173;SDS011;8702;48.130;-1.696;2022-09-09T00:11:31;14.27;;;4.07;;
17173;SDS011;8702;48.130;-1.696;2022-09-09T00:14:08;11.93;;;3.47;;
17173;SDS011;8702;48.130;-1.696;2022-09-09T00:16:47;14.40;;;3.53;;
17173;SDS011;8702;48.130;-1.696;2022-09-09T00:19:20;15.50;;;3.87;;
17173;SDS011;8702;48.130;-1.696;2022-09-09T00:21:54;14.73;;;3.53;;
17173;SDS011;8702;48.130;-1.696;2022-09-09T00:24:38;12.20;;;3.30;;
17173;SDS011;8702;48.130;-1.696;2022-09-09T00:27:11;11.37;;;3.67;;
17173;SDS011;8702;48.130;-1.696;2022-09-09T00:29:51;12.93;;;3.57;;
17173;SDS011;8702;48.130;-1.696;2022-09-09T00:32:21;12.43;;;3.00;;
17173;SDS011;8702;48.130;-1.696;2022-09-09T00:34:51;14.37;;;4.20;;
17173;SDS011;8702;48.130;-1.696;2022-09-09T00:37:22;12.07;;;3.73;;
17173;SDS011;8702;48.130;-1.696;2022-09-09T00:39:51;12.27;;;3.63;;
17173;SDS011;8702;48.130;-1.696;2022-09-09T00:42:25;15.47;;;3.83;;
17173;SDS011;8702;48.130;-1.696;2022-09-09T00:44:58;15.37;;;3.70;;
17173;SDS011;8702;48.130;-1.696;2022-09-09T00:47:34;15.43;;;4.20;;
17173;SDS011;8702;48.130;-1.696;2022-09-09T00:50:17;15.70;;;3.37;;
17173;SDS011;8702;48.130;-1.696;2022-09-09T00:53:05;15.53;;;3.60;;
17173;SDS011;8702;48.130;-1.696;2022-09-09T00:55:59;12.27;;;3.20;;
17173;SDS011;8702;48.130;-1.696;2022-09-09T00:58:34;15.97;;;3.43;;
17173;SDS011;8702;48.130;-1.696;2022-09-09T01:01:02;13.03;;;4.17;;
17173;SDS011;8702;48.130;-1.696;2022-09-09T01:03:34;13.77;;;3.57;;
17173;SDS011;8702;48.130;-1.696;2022-09-09T01:06:13;12.43;;;3.43;;
17173;SDS011;8702;48.130;-1.696;2022-09-09T01:08:48;13.33;;;3.70;;
17173;SDS011;8702;48.130;-1.696;2022-09-09T01:11:25;14.10;;;3.27;;
17173;SDS011;8702;48.130;-1.696;2022-09-09T01:14:01;13.63;;;3.43;;
17173;SDS011;8702;48.130;-1.696;2022-09-09T01:16:39;10.17;;;3.23;;
17173;SDS011;8702;48.130;-1.696;2022-09-09T01:19:07;10.87;;;3.10;;
17173;SDS011;8702;48.130;-1.696;2022-09-09T01:21:41;12.10;;;3.23;;
17173;SDS011;8702;48.130;-1.696;2022-09-09T01:24:24;16.23;;;3.57;;
17173;SDS011;8702;48.130;-1.696;2022-09-09T01:26:59;12.17;;;3.10;;
17173;SDS011;8702;48.130;-1.696;2022-09-09T01:29:28;10.40;;;2.83;;
17173;SDS011;8702;48.130;-1.696;2022-09-09T01:31:56;17.40;;;3.90;;
17173;SDS011;8702;48.130;-1.696;2022-09-09T01:34:25;13.23;;;3.00;;
17173;SDS011;8702;48.130;-1.696;2022-09-09T01:36:57;12.67;;;3.43;;
17173;SDS011;8702;48.130;-1.696;2022-09-09T01:39:29;14.20;;;3.50;;
17173;SDS011;8702;48.130;-1.696;2022-09-09T01:41:57;12.47;;;3.20;;
17173;SDS011;8702;48.130;-1.696;2022-09-09T01:44:26;14.70;;;3.60;;
17173;SDS011;8702;48.130;-1.696;2022-09-09T01:46:54;12.43;;;3.70;;
17173;SDS011;8702;48.130;-1.696;2022-09-09T01:49:21;10.90;;;3.17;;
17173;SDS011;8702;48.130;-1.696;2022-09-09T01:51:48;14.73;;;3.53;;
17173;SDS011;8702;48.130;-1.696;2022-09-09T01:54:17;15.77;;;3.63;;
17173;SDS011;8702;48.130;-1.696;2022-09-09T01:56:47;13.63;;;3.27;;
17173;SDS011;8702;48.130;-1.696;2022-09-09T01:59:34;18.83;;;3.83;;
17173;SDS011;8702;48.130;-1.696;2022-09-09T02:02:12;9.47;;;2.93;;
17173;SDS011;8702;48.130;-1.696;2022-09-09T02:04:42;14.83;;;3.83;;
17173;SDS011;8702;48.130;-1.696;2022-09-09T02:07:24;12.30;;;3.33;;
17173;SDS011;8702;48.130;-1.696;2022-09-09T02:10:02;11.20;;;2.90;;
17173;SDS011;8702;48.130;-1.696;2022-09-09T02:12:35;11.30;;;2.77;;
17173;SDS011;8702;48.130;-1.696;2022-09-09T02:15:07;10.67;;;2.63;;
17173;SDS011;8702;48.130;-1.696;2022-09-09T02:17:42;11.97;;;3.20;;
17173;SDS011;8702;48.130;-1.696;2022-09-09T02:20:10;9.97;;;3.10;;
17173;SDS011;8702;48.130;-1.696;2022-09-09T02:22:40;13.27;;;4.07;;
17173;SDS011;8702;48.130;-1.696;2022-09-09T02:25:10;11.37;;;3.17;;
17173;SDS011;8702;48.130;-1.696;2022-09-09T02:27:40;10.03;;;2.90;;
17173;SDS011;8702;48.130;-1.696;2022-09-09T02:30:13;12.70;;;3.80;;
17173;SDS011;8702;48.130;-1.696;2022-09-09T02:32:40;11.80;;;2.93;;
17173;SDS011;8702;48.130;-1.696;2022-09-09T02:35:11;10.20;;;3.17;;
17173;SDS011;8702;48.130;-1.696;2022-09-09T02:37:40;12.07;;;2.73;;
17173;SDS011;8702;48.130;-1.696;2022-09-09T02:40:09;8.07;;;2.60;;
17173;SDS011;8702;48.130;-1.696;2022-09-09T02:42:39;10.93;;;2.80;;
17173;SDS011;8702;48.130;-1.696;2022-09-09T02:45:07;11.30;;;2.70;;
17173;SDS011;8702;48.130;-1.696;2022-09-09T02:47:37;7.57;;;2.33;;
17173;SDS011;8702;48.130;-1.696;2022-09-09T02:50:12;11.93;;;2.80;;
17173;SDS011;8702;48.130;-1.696;2022-09-09T02:52:52;15.73;;;3.00;;
17173;SDS011;8702;48.130;-1.696;2022-09-09T02:55:30;11.40;;;3.30;;
17173;SDS011;8702;48.130;-1.696;2022-09-09T02:58:04;10.83;;;2.30;;
17173;SDS011;8702;48.130;-1.696;2022-09-09T03:00:35;13.67;;;2.90;;
17173;SDS011;8702;48.130;-1.696;2022-09-09T03:03:04;7.87;;;2.70;;
17173;SDS011;8702;48.130;-1.696;2022-09-09T03:05:33;7.50;;;2.33;;
17173;SDS011;8702;48.130;-1.696;2022-09-09T03:08:01;10.50;;;2.93;;
17173;SDS011;8702;48.130;-1.696;2022-09-09T03:10:28;9.67;;;2.50;;
17173;SDS011;8702;48.130;-1.696;2022-09-09T03:12:55;7.03;;;2.37;;
17173;SDS011;8702;48.130;-1.696;2022-09-09T03:15:22;10.30;;;2.40;;
17173;SDS011;8702;48.130;-1.696;2022-09-09T03:17:55;9.93;;;2.80;;
17173;SDS011;8702;48.130;-1.696;2022-09-09T03:20:23;9.53;;;2.83;;
17173;SDS011;8702;48.130;-1.696;2022-09-09T03:22:51;9.67;;;2.60;;
17173;SDS011;8702;48.130;-1.696;2022-09-09T03:25:18;8.10;;;2.50;;
17173;SDS011;8702;48.130;-1.696;2022-09-09T03:27:45;12.80;;;2.87;;
17173;SDS011;8702;48.130;-1.696;2022-09-09T03:30:13;12.53;;;2.77;;
17173;SDS011;8702;48.130;-1.696;2022-09-09T03:32:40;9.97;;;2.40;;
17173;SDS011;8702;48.130;-1.696;2022-09-09T03:35:08;9.63;;;2.43;;
17173;SDS011;8702;48.130;-1.696;2022-09-09T03:37:36;11.60;;;3.00;;
17173;SDS011;8702;48.130;-1.696;2022-09-09T03:40:04;10.60;;;2.90;;
17173;SDS011;8702;48.130;-1.696;2022-09-09T03:42:32;9.43;;;2.33;;
17173;SDS011;8702;48.130;-1.696;2022-09-09T03:45:02;7.50;;;2.60;;
17173;SDS011;8702;48.130;-1.696;2022-09-09T03:47:30;11.60;;;2.80;;
17173;SDS011;8702;48.130;-1.696;2022-09-09T03:49:57;9.50;;;2.77;;
17173;SDS011;8702;48.130;-1.696;2022-09-09T03:52:23;8.67;;;2.47;;
17173;SDS011;8702;48.130;-1.696;2022-09-09T03:54:52;12.53;;;3.07;;
17173;SDS011;8702;48.130;-1.696;2022-09-09T03:57:22;13.37;;;3.00;;
17173;SDS011;8702;48.130;-1.696;2022-09-09T03:59:49;7.23;;;2.07;;
17173;SDS011;8702;48.130;-1.696;2022-09-09T04:02:16;11.07;;;2.77;;
17173;SDS011;8702;48.130;-1.696;2022-09-09T04:04:43;6.77;;;2.40;;
17173;SDS011;8702;48.130;-1.696;2022-09-09T04:07:10;11.27;;;3.43;;
17173;SDS011;8702;48.130;-1.696;2022-09-09T04:09:37;8.03;;;2.60;;
17173;SDS011;8702;48.130;-1.696;2022-09-09T04:12:05;11.53;;;2.60;;
17173;SDS011;8702;48.130;-1.696;2022-09-09T04:14:32;8.90;;;2.83;;
17173;SDS011;8702;48.130;-1.696;2022-09-09T04:16:59;10.30;;;2.63;;
17173;SDS011;8702;48.130;-1.696;2022-09-09T04:19:29;8.30;;;2.43;;
17173;SDS011;8702;48.130;-1.696;2022-09-09T04:21:56;8.27;;;2.60;;
17173;SDS011;8702;48.130;-1.696;2022-09-09T04:24:24;8.53;;;2.30;;
17173;SDS011;8702;48.130;-1.696;2022-09-09T04:26:54;12.87;;;3.30;;
17173;SDS011;8702;48.130;-1.696;2022-09-09T04:29:22;13.30;;;3.10;;
17173;SDS011;8702;48.130;-1.696;2022-09-09T04:31:49;8.73;;;2.40;;
17173;SDS011;8702;48.130;-1.696;2022-09-09T04:34:16;11.47;;;3.13;;
17173;SDS011;8702;48.130;-1.696;2022-09-09T04:36:43;10.07;;;3.03;;
17173;SDS011;8702;48.130;-1.696;2022-09-09T04:39:10;7.30;;;2.30;;
17173;SDS011;8702;48.130;-1.696;2022-09-09T04:41:37;8.23;;;2.83;;
17173;SDS011;8702;48.130;-1.696;2022-09-09T04:44:04;9.77;;;2.73;;
17173;SDS011;8702;48.130;-1.696;2022-09-09T04:46:33;12.97;;;3.13;;
17173;SDS011;8702;48.130;-1.696;2022-09-09T04:49:00;9.07;;;2.87;;
17173;SDS011;8702;48.130;-1.696;2022-09-09T04:51:27;13.27;;;3.17;;
17173;SDS011;8702;48.130;-1.696;2022-09-09T04:53:56;12.63;;;3.00;;
17173;SDS011;8702;48.130;-1.696;2022-09-09T04:56:23;12.70;;;3.30;;
17173;SDS011;8702;48.130;-1.696;2022-09-09T04:58:51;10.67;;;2.70;;
17173;SDS011;8702;48.130;-1.696;2022-09-09T05:01:20;9.00;;;2.47;;
17173;SDS011;8702;48.130;-1.696;2022-09-09T05:03:50;9.00;;;2.47;;
17173;SDS011;8702;48.130;-1.696;2022-09-09T05:06:19;11.00;;;2.60;;
17173;SDS011;8702;48.130;-1.696;2022-09-09T05:08:47;11.03;;;3.03;;
17173;SDS011;8702;48.130;-1.696;2022-09-09T05:11:18;16.83;;;3.90;;
17173;SDS011;8702;48.130;-1.696;2022-09-09T05:13:48;11.87;;;2.77;;
17173;SDS011;8702;48.130;-1.696;2022-09-09T05:16:16;10.60;;;3.10;;
17173;SDS011;8702;48.130;-1.696;2022-09-09T05:18:43;12.87;;;3.00;;
17173;SDS011;8702;48.130;-1.696;2022-09-09T05:21:14;14.33;;;2.80;;
17173;SDS011;8702;48.130;-1.696;2022-09-09T05:23:42;9.27;;;2.73;;
17173;SDS011;8702;48.130;-1.696;2022-09-09T05:26:11;13.17;;;2.90;;
17173;SDS011;8702;48.130;-1.696;2022-09-09T05:28:39;11.57;;;3.47;;
17173;SDS011;8702;48.130;-1.696;2022-09-09T05:31:07;7.97;;;2.67;;
17173;SDS011;8702;48.130;-1.696;2022-09-09T05:33:38;12.97;;;3.20;;
17173;SDS011;8702;48.130;-1.696;2022-09-09T05:36:06;14.03;;;2.97;;
17173;SDS011;8702;48.130;-1.696;2022-09-09T05:38:37;8.57;;;2.97;;
17173;SDS011;8702;48.130;-1.696;2022-09-09T05:41:04;10.87;;;2.97;;
17173;SDS011;8702;48.130;-1.696;2022-09-09T05:43:32;9.73;;;2.83;;
17173;SDS011;8702;48.130;-1.696;2022-09-09T05:46:01;13.87;;;2.80;;
17173;SDS011;8702;48.130;-1.696;2022-09-09T05:48:29;13.77;;;3.10;;
17173;SDS011;8702;48.130;-1.696;2022-09-09T05:50:57;9.33;;;2.90;;
17173;SDS011;8702;48.130;-1.696;2022-09-09T05:53:25;14.47;;;3.30;;
17173;SDS011;8702;48.130;-1.696;2022-09-09T05:55:59;11.20;;;3.63;;
17173;SDS011;8702;48.130;-1.696;2022-09-09T05:58:28;17.97;;;3.87;;
17173;SDS011;8702;48.130;-1.696;2022-09-09T06:01:05;16.03;;;3.20;;
17173;SDS011;8702;48.130;-1.696;2022-09-09T06:03:35;12.87;;;3.10;;
17173;SDS011;8702;48.130;-1.696;2022-09-09T06:06:03;14.70;;;3.43;;
17173;SDS011;8702;48.130;-1.696;2022-09-09T06:08:32;14.17;;;3.20;;
17173;SDS011;8702;48.130;-1.696;2022-09-09T06:11:03;16.47;;;3.23;;
17173;SDS011;8702;48.130;-1.696;2022-09-09T06:13:32;12.07;;;3.37;;
17173;SDS011;8702;48.130;-1.696;2022-09-09T06:16:00;14.80;;;4.03;;
17173;SDS011;8702;48.130;-1.696;2022-09-09T06:18:27;10.43;;;2.83;;
17173;SDS011;8702;48.130;-1.696;2022-09-09T06:20:55;10.60;;;2.77;;
17173;SDS011;8702;48.130;-1.696;2022-09-09T06:23:22;13.87;;;3.60;;
17173;SDS011;8702;48.130;-1.696;2022-09-09T06:25:50;13.30;;;3.90;;
17173;SDS011;8702;48.130;-1.696;2022-09-09T06:28:18;22.07;;;3.67;;
17173;SDS011;8702;48.130;-1.696;2022-09-09T06:30:45;12.97;;;2.87;;
17173;SDS011;8702;48.130;-1.696;2022-09-09T06:33:12;11.73;;;3.33;;
17173;SDS011;8702;48.130;-1.696;2022-09-09T06:35:40;18.00;;;3.60;;
17173;SDS011;8702;48.130;-1.696;2022-09-09T06:38:07;20.03;;;3.70;;
17173;SDS011;8702;48.130;-1.696;2022-09-09T06:40:34;15.67;;;3.80;;
17173;SDS011;8702;48.130;-1.696;2022-09-09T06:43:01;11.07;;;3.03;;
17173;SDS011;8702;48.130;-1.696;2022-09-09T06:45:30;10.07;;;3.00;;
17173;SDS011;8702;48.130;-1.696;2022-09-09T06:47:57;9.73;;;3.07;;
17173;SDS011;8702;48.130;-1.696;2022-09-09T06:50:24;13.33;;;2.87;;
17173;SDS011;8702;48.130;-1.696;2022-09-09T06:52:51;15.40;;;3.63;;
17173;SDS011;8702;48.130;-1.696;2022-09-09T06:55:18;14.93;;;3.23;;
17173;SDS011;8702;48.130;-1.696;2022-09-09T06:57:45;13.97;;;3.50;;
17173;SDS011;8702;48.130;-1.696;2022-09-09T07:00:13;16.73;;;3.30;;
17173;SDS011;8702;48.130;-1.696;2022-09-09T07:02:42;9.80;;;2.87;;
17173;SDS011;8702;48.130;-1.696;2022-09-09T07:05:10;11.77;;;3.50;;
17173;SDS011;8702;48.130;-1.696;2022-09-09T07:07:37;11.80;;;2.93;;
17173;SDS011;8702;48.130;-1.696;2022-09-09T07:10:04;13.70;;;3.03;;
17173;SDS011;8702;48.130;-1.696;2022-09-09T07:12:32;10.07;;;2.90;;
17173;SDS011;8702;48.130;-1.696;2022-09-09T07:14:59;15.63;;;3.23;;
17173;SDS011;8702;48.130;-1.696;2022-09-09T07:17:26;10.97;;;3.23;;
17173;SDS011;8702;48.130;-1.696;2022-09-09T07:19:55;12.67;;;3.00;;
17173;SDS011;8702;48.130;-1.696;2022-09-09T07:22:22;11.07;;;2.83;;
17173;SDS011;8702;48.130;-1.696;2022-09-09T07:24:50;7.37;;;2.30;;
17173;SDS011;8702;48.130;-1.696;2022-09-09T07:27:17;9.57;;;3.30;;
17173;SDS011;8702;48.130;-1.696;2022-09-09T07:29:43;12.90;;;2.83;;
17173;SDS011;8702;48.130;-1.696;2022-09-09T07:32:11;10.33;;;2.90;;
17173;SDS011;8702;48.130;-1.696;2022-09-09T07:34:38;9.27;;;2.87;;
17173;SDS011;8702;48.130;-1.696;2022-09-09T07:37:06;8.00;;;2.93;;
17173;SDS011;8702;48.130;-1.696;2022-09-09T07:39:36;12.10;;;3.40;;
17173;SDS011;8702;48.130;-1.696;2022-09-09T07:42:03;7.87;;;2.43;;
17173;SDS011;8702;48.130;-1.696;2022-09-09T07:44:31;10.87;;;2.40;;
17173;SDS011;8702;48.130;-1.696;2022-09-09T07:47:00;8.90;;;2.43;;
17173;SDS011;8702;48.130;-1.696;2022-09-09T07:49:27;20.80;;;3.10;;
17173;SDS011;8702;48.130;-1.696;2022-09-09T07:51:54;13.70;;;2.67;;
17173;SDS011;8702;48.130;-1.696;2022-09-09T07:54:22;16.20;;;3.00;;
17173;SDS011;8702;48.130;-1.696;2022-09-09T07:56:50;12.23;;;3.37;;
17173;SDS011;8702;48.130;-1.696;2022-09-09T07:59:17;8.77;;;2.70;;
17173;SDS011;8702;48.130;-1.696;2022-09-09T08:01:45;13.03;;;2.53;;
17173;SDS011;8702;48.130;-1.696;2022-09-09T08:04:14;12.90;;;2.63;;
17173;SDS011;8702;48.130;-1.696;2022-09-09T08:06:43;13.33;;;3.03;;
17173;SDS011;8702;48.130;-1.696;2022-09-09T08:09:11;11.20;;;3.03;;
17173;SDS011;8702;48.130;-1.696;2022-09-09T08:11:41;10.73;;;2.73;;
17173;SDS011;8702;48.130;-1.696;2022-09-09T08:14:08;11.93;;;2.90;;
17173;SDS011;8702;48.130;-1.696;2022-09-09T08:16:37;16.77;;;3.87;;
17173;SDS011;8702;48.130;-1.696;2022-09-09T08:19:07;8.50;;;2.70;;
17173;SDS011;8702;48.130;-1.696;2022-09-09T08:21:35;11.10;;;2.60;;
17173;SDS011;8702;48.130;-1.696;2022-09-09T08:24:06;13.17;;;3.37;;
17173;SDS011;8702;48.130;-1.696;2022-09-09T08:26:36;10.97;;;3.20;;
17173;SDS011;8702;48.130;-1.696;2022-09-09T08:29:05;10.47;;;3.17;;
17173;SDS011;8702;48.130;-1.696;2022-09-09T08:31:35;12.33;;;3.03;;
17173;SDS011;8702;48.130;-1.696;2022-09-09T08:34:04;12.17;;;3.33;;
17173;SDS011;8702;48.130;-1.696;2022-09-09T08:36:32;11.63;;;2.90;;
17173;SDS011;8702;48.130;-1.696;2022-09-09T08:39:02;12.73;;;3.17;;
17173;SDS011;8702;48.130;-1.696;2022-09-09T08:41:33;8.93;;;3.00;;
17173;SDS011;8702;48.130;-1.696;2022-09-09T08:44:10;8.90;;;2.80;;
17173;SDS011;8702;48.130;-1.696;2022-09-09T08:46:44;9.80;;;2.60;;
17173;SDS011;8702;48.130;-1.696;2022-09-09T08:49:24;9.73;;;2.87;;
17173;SDS011;8702;48.130;-1.696;2022-09-09T08:52:08;10.77;;;2.70;;
17173;SDS011;8702;48.130;-1.696;2022-09-09T08:54:43;12.73;;;3.27;;
17173;SDS011;8702;48.130;-1.696;2022-09-09T08:57:11;8.27;;;2.93;;
17173;SDS011;8702;48.130;-1.696;2022-09-09T08:59:46;10.63;;;2.77;;
17173;SDS011;8702;48.130;-1.696;2022-09-09T09:02:14;11.83;;;2.93;;
17173;SDS011;8702;48.130;-1.696;2022-09-09T09:07:42;8.77;;;2.70;;
17173;SDS011;8702;48.130;-1.696;2022-09-09T09:10:23;7.47;;;2.50;;
17173;SDS011;8702;48.130;-1.696;2022-09-09T09:12:59;9.77;;;2.53;;
17173;SDS011;8702;48.130;-1.696;2022-09-09T09:15:29;16.93;;;3.17;;
17173;SDS011;8702;48.130;-1.696;2022-09-09T09:18:02;8.67;;;2.13;;
17173;SDS011;8702;48.130;-1.696;2022-09-09T09:20:32;10.73;;;2.80;;
17173;SDS011;8702;48.130;-1.696;2022-09-09T09:23:06;6.47;;;2.37;;
17173;SDS011;8702;48.130;-1.696;2022-09-09T09:25:41;13.73;;;2.40;;
17173;SDS011;8702;48.130;-1.696;2022-09-09T09:28:11;8.20;;;2.27;;
17173;SDS011;8702;48.130;-1.696;2022-09-09T09:30:46;10.20;;;2.33;;
17173;SDS011;8702;48.130;-1.696;2022-09-09T09:33:19;9.97;;;2.70;;
17173;SDS011;8702;48.130;-1.696;2022-09-09T09:35:49;7.40;;;2.43;;
17173;SDS011;8702;48.130;-1.696;2022-09-09T09:38:17;12.70;;;3.00;;
17173;SDS011;8702;48.130;-1.696;2022-09-09T09:40:49;8.10;;;2.30;;
17173;SDS011;8702;48.130;-1.696;2022-09-09T09:43:19;8.23;;;2.57;;
17173;SDS011;8702;48.130;-1.696;2022-09-09T09:45:51;10.67;;;2.80;;
17173;SDS011;8702;48.130;-1.696;2022-09-09T09:48:18;6.73;;;2.20;;
17173;SDS011;8702;48.130;-1.696;2022-09-09T09:50:49;9.63;;;2.60;;
17173;SDS011;8702;48.130;-1.696;2022-09-09T09:53:20;6.17;;;2.10;;
17173;SDS011;8702;48.130;-1.696;2022-09-09T09:55:51;9.10;;;2.63;;
17173;SDS011;8702;48.130;-1.696;2022-09-09T09:58:22;8.83;;;2.30;;
17173;SDS011;8702;48.130;-1.696;2022-09-09T10:00:52;8.63;;;2.10;;
17173;SDS011;8702;48.130;-1.696;2022-09-09T10:03:22;8.83;;;2.23;;
17173;SDS011;8702;48.130;-1.696;2022-09-09T10:05:52;8.90;;;2.60;;
17173;SDS011;8702;48.130;-1.696;2022-09-09T10:08:20;9.90;;;2.63;;
17173;SDS011;8702;48.130;-1.696;2022-09-09T10:10:59;9.30;;;2.60;;
17173;SDS011;8702;48.130;-1.696;2022-09-09T10:13:35;11.10;;;2.43;;
17173;SDS011;8702;48.130;-1.696;2022-09-09T10:16:22;9.50;;;2.50;;
17173;SDS011;8702;48.130;-1.696;2022-09-09T10:19:00;8.00;;;2.23;;
17173;SDS011;8702;48.130;-1.696;2022-09-09T10:21:39;7.47;;;2.43;;
17173;SDS011;8702;48.130;-1.696;2022-09-09T10:24:27;7.37;;;2.60;;
17173;SDS011;8702;48.130;-1.696;2022-09-09T10:27:11;12.47;;;3.17;;
17173;SDS011;8702;48.130;-1.696;2022-09-09T10:29:59;6.50;;;2.30;;
17173;SDS011;8702;48.130;-1.696;2022-09-09T10:32:39;8.23;;;2.30;;
17173;SDS011;8702;48.130;-1.696;2022-09-09T10:35:17;11.03;;;2.47;;
17173;SDS011;8702;48.130;-1.696;2022-09-09T10:38:03;8.27;;;2.53;;
17173;SDS011;8702;48.130;-1.696;2022-09-09T10:40:42;6.73;;;2.30;;
17173;SDS011;8702;48.130;-1.696;2022-09-09T10:43:20;5.67;;;2.10;;
17173;SDS011;8702;48.130;-1.696;2022-09-09T10:46:00;9.83;;;2.40;;
17173;SDS011;8702;48.130;-1.696;2022-09-09T10:48:42;9.50;;;2.73;;
17173;SDS011;8702;48.130;-1.696;2022-09-09T10:51:22;7.83;;;2.20;;
17173;SDS011;8702;48.130;-1.696;2022-09-09T10:54:00;12.53;;;2.57;;
17173;SDS011;8702;48.130;-1.696;2022-09-09T10:56:39;7.00;;;2.07;;
17173;SDS011;8702;48.130;-1.696;2022-09-09T10:59:12;7.43;;;2.23;;
17173;SDS011;8702;48.130;-1.696;2022-09-09T11:01:46;5.10;;;1.70;;
17173;SDS011;8702;48.130;-1.696;2022-09-09T11:04:20;7.63;;;1.90;;
17173;SDS011;8702;48.130;-1.696;2022-09-09T11:06:51;6.47;;;2.03;;
17173;SDS011;8702;48.130;-1.696;2022-09-09T11:09:21;4.83;;;1.93;;
17173;SDS011;8702;48.130;-1.696;2022-09-09T11:11:53;4.50;;;1.80;;
17173;SDS011;8702;48.130;-1.696;2022-09-09T11:14:22;4.50;;;1.70;;
17173;SDS011;8702;48.130;-1.696;2022-09-09T11:16:56;5.20;;;1.60;;
17173;SDS011;8702;48.130;-1.696;2022-09-09T11:19:28;5.83;;;1.67;;
17173;SDS011;8702;48.130;-1.696;2022-09-09T11:22:00;7.13;;;1.70;;
17173;SDS011;8702;48.130;-1.696;2022-09-09T11:24:32;6.63;;;1.80;;
17173;SDS011;8702;48.130;-1.696;2022-09-09T11:27:06;10.13;;;1.70;;
17173;SDS011;8702;48.130;-1.696;2022-09-09T11:29:51;5.87;;;1.67;;
17173;SDS011;8702;48.130;-1.696;2022-09-09T11:32:48;5.27;;;1.73;;
17173;SDS011;8702;48.130;-1.696;2022-09-09T11:35:44;4.00;;;1.73;;
17173;SDS011;8702;48.130;-1.696;2022-09-09T11:38:31;7.07;;;1.77;;
17173;SDS011;8702;48.130;-1.696;2022-09-09T11:41:05;9.10;;;2.80;;
17173;SDS011;8702;48.130;-1.696;2022-09-09T11:43:38;8.37;;;2.00;;
17173;SDS011;8702;48.130;-1.696;2022-09-09T11:46:07;6.10;;;1.90;;
17173;SDS011;8702;48.130;-1.696;2022-09-09T11:48:35;7.13;;;1.97;;
17173;SDS011;8702;48.130;-1.696;2022-09-09T11:51:06;6.57;;;1.97;;
17173;SDS011;8702;48.130;-1.696;2022-09-09T11:53:46;8.10;;;2.40;;
17173;SDS011;8702;48.130;-1.696;2022-09-09T11:56:22;8.83;;;2.17;;
17173;SDS011;8702;48.130;-1.696;2022-09-09T11:58:56;6.77;;;1.70;;
17173;SDS011;8702;48.130;-1.696;2022-09-09T12:04:16;4.43;;;1.57;;
17173;SDS011;8702;48.130;-1.696;2022-09-09T12:06:56;4.10;;;1.43;;
17173;SDS011;8702;48.130;-1.696;2022-09-09T12:09:28;4.00;;;1.30;;
17173;SDS011;8702;48.130;-1.696;2022-09-09T12:12:05;4.47;;;1.53;;
17173;SDS011;8702;48.130;-1.696;2022-09-09T12:14:35;6.37;;;1.43;;
17173;SDS011;8702;48.130;-1.696;2022-09-09T12:17:16;6.23;;;1.97;;
17173;SDS011;8702;48.130;-1.696;2022-09-09T12:19:46;4.83;;;1.30;;
17173;SDS011;8702;48.130;-1.696;2022-09-09T12:22:17;3.60;;;1.43;;
17173;SDS011;8702;48.130;-1.696;2022-09-09T12:24:54;4.10;;;1.23;;
17173;SDS011;8702;48.130;-1.696;2022-09-09T12:27:28;3.80;;;1.50;;
17173;SDS011;8702;48.130;-1.696;2022-09-09T12:30:04;4.80;;;1.50;;
17173;SDS011;8702;48.130;-1.696;2022-09-09T12:32:35;6.13;;;1.67;;
17173;SDS011;8702;48.130;-1.696;2022-09-09T12:35:04;2.90;;;1.30;;
17173;SDS011;8702;48.130;-1.696;2022-09-09T12:37:39;2.57;;;1.20;;
17173;SDS011;8702;48.130;-1.696;2022-09-09T12:40:18;5.67;;;1.53;;
17173;SDS011;8702;48.130;-1.696;2022-09-09T12:42:46;4.33;;;1.90;;
17173;SDS011;8702;48.130;-1.696;2022-09-09T12:45:15;4.80;;;1.70;;
17173;SDS011;8702;48.130;-1.696;2022-09-09T12:47:44;4.23;;;1.63;;
17173;SDS011;8702;48.130;-1.696;2022-09-09T12:50:15;5.87;;;1.83;;
17173;SDS011;8702;48.130;-1.696;2022-09-09T12:52:46;6.47;;;1.53;;
17173;SDS011;8702;48.130;-1.696;2022-09-09T12:55:16;3.97;;;1.57;;
17173;SDS011;8702;48.130;-1.696;2022-09-09T12:57:46;4.77;;;1.73;;
17173;SDS011;8702;48.130;-1.696;2022-09-09T13:00:16;5.80;;;1.70;;
17173;SDS011;8702;48.130;-1.696;2022-09-09T13:02:49;4.90;;;1.60;;
17173;SDS011;8702;48.130;-1.696;2022-09-09T13:05:18;3.47;;;1.60;;
17173;SDS011;8702;48.130;-1.696;2022-09-09T13:07:49;6.93;;;1.73;;
17173;SDS011;8702;48.130;-1.696;2022-09-09T13:10:20;7.50;;;1.90;;
17173;SDS011;8702;48.130;-1.696;2022-09-09T13:12:52;7.17;;;1.87;;
17173;SDS011;8702;48.130;-1.696;2022-09-09T13:15:21;6.67;;;1.87;;
17173;SDS011;8702;48.130;-1.696;2022-09-09T13:17:55;6.50;;;1.60;;
17173;SDS011;8702;48.130;-1.696;2022-09-09T13:20:25;8.23;;;1.50;;
17173;SDS011;8702;48.130;-1.696;2022-09-09T13:22:55;6.93;;;1.93;;
17173;SDS011;8702;48.130;-1.696;2022-09-09T13:25:23;4.03;;;1.57;;
17173;SDS011;8702;48.130;-1.696;2022-09-09T13:27:52;5.23;;;1.50;;
17173;SDS011;8702;48.130;-1.696;2022-09-09T13:30:26;5.83;;;1.80;;
17173;SDS011;8702;48.130;-1.696;2022-09-09T13:33:06;4.83;;;1.70;;
17173;SDS011;8702;48.130;-1.696;2022-09-09T13:35:50;5.37;;;1.83;;
17173;SDS011;8702;48.130;-1.696;2022-09-09T13:38:22;7.20;;;1.83;;
17173;SDS011;8702;48.130;-1.696;2022-09-09T13:40:56;3.77;;;1.30;;
17173;SDS011;8702;48.130;-1.696;2022-09-09T13:43:27;5.27;;;2.00;;
17173;SDS011;8702;48.130;-1.696;2022-09-09T13:45:56;10.20;;;2.03;;
17173;SDS011;8702;48.130;-1.696;2022-09-09T13:48:25;6.97;;;1.97;;
17173;SDS011;8702;48.130;-1.696;2022-09-09T13:50:56;6.03;;;1.77;;
17173;SDS011;8702;48.130;-1.696;2022-09-09T13:53:26;8.37;;;2.33;;
17173;SDS011;8702;48.130;-1.696;2022-09-09T13:55:53;4.03;;;1.77;;
17173;SDS011;8702;48.130;-1.696;2022-09-09T13:58:22;3.77;;;1.83;;
17173;SDS011;8702;48.130;-1.696;2022-09-09T14:00:50;3.13;;;1.40;;
17173;SDS011;8702;48.130;-1.696;2022-09-09T14:03:18;4.33;;;1.47;;
17173;SDS011;8702;48.130;-1.696;2022-09-09T14:05:45;5.93;;;1.70;;
17173;SDS011;8702;48.130;-1.696;2022-09-09T14:08:15;5.73;;;1.90;;
17173;SDS011;8702;48.130;-1.696;2022-09-09T14:10:49;2.10;;;1.30;;
17173;SDS011;8702;48.130;-1.696;2022-09-09T14:13:17;4.67;;;1.20;;
17173;SDS011;8702;48.130;-1.696;2022-09-09T14:15:47;4.67;;;1.50;;
17173;SDS011;8702;48.130;-1.696;2022-09-09T14:18:14;4.33;;;1.37;;
17173;SDS011;8702;48.130;-1.696;2022-09-09T14:20:41;3.67;;;1.30;;
17173;SDS011;8702;48.130;-1.696;2022-09-09T14:23:10;4.97;;;1.00;;
17173;SDS011;8702;48.130;-1.696;2022-09-09T14:25:41;2.20;;;1.30;;
17173;SDS011;8702;48.130;-1.696;2022-09-09T14:28:11;3.40;;;1.10;;
17173;SDS011;8702;48.130;-1.696;2022-09-09T14:30:39;3.20;;;1.33;;
17173;SDS011;8702;48.130;-1.696;2022-09-09T14:33:08;2.57;;;1.30;;
17173;SDS011;8702;48.130;-1.696;2022-09-09T14:35:37;3.57;;;1.20;;
17173;SDS011;8702;48.130;-1.696;2022-09-09T14:38:06;3.17;;;1.33;;
17173;SDS011;8702;48.130;-1.696;2022-09-09T14:40:34;3.67;;;1.30;;
17173;SDS011;8702;48.130;-1.696;2022-09-09T14:43:01;1.47;;;0.90;;
17173;SDS011;8702;48.130;-1.696;2022-09-09T14:45:30;3.00;;;0.90;;
17173;SDS011;8702;48.130;-1.696;2022-09-09T14:47:57;5.70;;;0.90;;
17173;SDS011;8702;48.130;-1.696;2022-09-09T14:50:24;4.20;;;1.23;;
17173;SDS011;8702;48.130;-1.696;2022-09-09T14:52:51;3.37;;;1.10;;
17173;SDS011;8702;48.130;-1.696;2022-09-09T14:55:18;2.53;;;1.03;;
17173;SDS011;8702;48.130;-1.696;2022-09-09T14:57:46;3.87;;;0.90;;
17173;SDS011;8702;48.130;-1.696;2022-09-09T15:00:14;3.97;;;1.50;;
17173;SDS011;8702;48.130;-1.696;2022-09-09T15:02:42;4.40;;;1.37;;
17173;SDS011;8702;48.130;-1.696;2022-09-09T15:05:09;4.90;;;1.27;;
17173;SDS011;8702;48.130;-1.696;2022-09-09T15:07:36;5.60;;;1.40;;
17173;SDS011;8702;48.130;-1.696;2022-09-09T15:10:03;3.07;;;1.33;;